Gubakha, Russia
Current Conditions -  °F | °C
As of 5:00 PM on Thursday 30 Oct 2014 (Local Time) from USPP Reporting Station
Few Clouds Few Clouds  
Wind Chill: 27°   Ceiling: Unl
Heat Index: 37°   Visibility: 6mi
Dew Point: 34°   Wind: 20mph
Humidity: 87%   Direction: 230°SW
Pressure: 30.06"   Gusts: NA
Location:  58.87°N, 57.59°E
Report Text: USPP 301200Z 23009MPS 9999 FEW013 03/01 Q1018 21090060 NOSIGRMK QFE752/1003
Loading
Personal Weather Stations






























Interactive Weather Map
Tropical Storm Tracking
New forecast layout! Learn more

10-Day Weather Forecast

Advertisements
Track Severe Weather on mobile